createdAt,value
2022-10-09T00:00:51.019Z,14.81
2022-10-09T00:03:19.437Z,14.91
2022-10-09T00:05:47.735Z,14.86
2022-10-09T00:08:16.005Z,14.94
2022-10-09T00:10:44.662Z,14.65
2022-10-09T00:13:13.300Z,14.76
2022-10-09T00:15:45.804Z,14.95
2022-10-09T00:18:16.919Z,14.91
2022-10-09T00:20:46.849Z,14.95
2022-10-09T00:23:17.412Z,14.93
2022-10-09T00:25:52.032Z,15.18
2022-10-09T00:28:20.308Z,14.91
2022-10-09T00:30:49.951Z,14.85
2022-10-09T00:33:18.595Z,14.78
2022-10-09T00:35:47.075Z,14.42
2022-10-09T00:38:15.710Z,14.10
2022-10-09T00:40:44.031Z,14.16
2022-10-09T00:43:16.013Z,13.84
2022-10-09T00:45:47.779Z,13.96
2022-10-09T00:48:18.125Z,14.18
2022-10-09T00:50:49.315Z,14.23
2022-10-09T00:53:19.520Z,14.09
2022-10-09T00:55:47.907Z,14.14
2022-10-09T00:58:16.192Z,13.87
2022-10-09T01:00:44.418Z,13.63
2022-10-09T01:03:12.658Z,12.87
2022-10-09T01:05:46.373Z,12.79
2022-10-09T01:08:17.858Z,12.94
2022-10-09T01:10:50.371Z,13.32
2022-10-09T01:13:24.546Z,13.00
2022-10-09T01:15:55.521Z,13.27
2022-10-09T01:18:28.283Z,13.07
2022-10-09T01:21:01.029Z,13.50
2022-10-09T01:24:03.058Z,13.65
2022-10-09T01:26:56.587Z,13.37
2022-10-09T01:29:25.962Z,12.82
2022-10-09T01:31:54.244Z,12.41
2022-10-09T01:34:22.803Z,11.87
2022-10-09T01:36:51.803Z,12.57
2022-10-09T01:39:22.845Z,13.01
2022-10-09T01:41:52.471Z,13.21
2022-10-09T01:44:23.828Z,13.14
2022-10-09T01:46:52.365Z,13.00
2022-10-09T01:49:43.092Z,13.26
2022-10-09T01:52:17.381Z,13.62
2022-10-09T01:54:54.503Z,13.29
2022-10-09T01:57:28.141Z,13.41
2022-10-09T02:00:00.342Z,13.53
2022-10-09T02:02:29.247Z,13.56
2022-10-09T02:04:58.941Z,13.20
2022-10-09T02:07:27.322Z,13.03
2022-10-09T02:09:56.479Z,12.86
2022-10-09T02:12:26.247Z,13.21
2022-10-09T02:14:55.625Z,13.30
2022-10-09T02:17:30.934Z,13.12
2022-10-09T02:20:07.873Z,13.19
2022-10-09T02:22:37.483Z,12.96
2022-10-09T02:25:08.380Z,12.76
2022-10-09T02:27:36.818Z,12.85
2022-10-09T02:30:07.930Z,12.71
2022-10-09T02:32:37.669Z,12.79
2022-10-09T02:35:06.762Z,12.58
2022-10-09T02:37:35.090Z,12.38
2022-10-09T02:40:08.278Z,12.30
2022-10-09T02:42:38.814Z,12.54
2022-10-09T02:45:08.756Z,12.20
2022-10-09T02:47:38.449Z,12.37
2022-10-09T02:50:08.145Z,12.80
2022-10-09T02:52:36.379Z,12.99
2022-10-09T02:55:04.978Z,13.09
2022-10-09T02:57:33.331Z,13.10
2022-10-09T03:00:01.570Z,13.05
2022-10-09T03:02:29.989Z,12.92
2022-10-09T03:04:59.653Z,12.40
2022-10-09T03:07:27.799Z,12.25
2022-10-09T03:09:57.241Z,12.68
2022-10-09T03:12:25.456Z,12.18
2022-10-09T03:14:53.670Z,12.07
2022-10-09T03:17:21.839Z,12.39
2022-10-09T03:19:50.388Z,12.04
2022-10-09T03:22:20.000Z,12.01
2022-10-09T03:24:48.198Z,12.58
2022-10-09T03:27:16.400Z,12.80
2022-10-09T03:29:44.550Z,12.88
2022-10-09T03:32:12.826Z,12.66
2022-10-09T03:37:28.130Z,12.32
2022-10-09T03:39:56.338Z,12.61
2022-10-09T03:42:24.872Z,11.92
2022-10-09T03:44:53.162Z,12.02
2022-10-09T03:47:21.375Z,12.38
2022-10-09T03:49:49.594Z,12.34
2022-10-09T03:52:17.796Z,12.46
2022-10-09T03:54:47.500Z,12.48
2022-10-09T03:57:15.762Z,12.47
2022-10-09T03:59:44.027Z,12.04
2022-10-09T04:02:12.301Z,11.98
2022-10-09T04:04:40.575Z,11.98
2022-10-09T04:07:08.913Z,12.08
2022-10-09T04:09:37.102Z,12.35
2022-10-09T04:12:06.923Z,12.32
2022-10-09T04:14:35.325Z,11.93
2022-10-09T04:17:03.553Z,12.01
2022-10-09T04:19:31.799Z,11.95
2022-10-09T04:22:00.085Z,11.92
2022-10-09T04:24:28.319Z,11.82
2022-10-09T04:26:56.890Z,12.07
2022-10-09T04:29:26.475Z,12.06
2022-10-09T04:31:54.718Z,11.43
2022-10-09T04:34:22.967Z,11.44
2022-10-09T04:36:51.180Z,12.03
2022-10-09T04:39:19.406Z,11.83
2022-10-09T04:41:47.622Z,12.07
2022-10-09T04:44:15.850Z,12.00
2022-10-09T04:46:45.525Z,11.55
2022-10-09T04:49:14.393Z,11.48
2022-10-09T04:51:42.631Z,11.93
2022-10-09T04:54:11.251Z,11.64
2022-10-09T04:56:39.732Z,12.06
2022-10-09T04:59:07.972Z,11.98
2022-10-09T05:01:38.472Z,12.10
2022-10-09T05:04:08.326Z,11.02
2022-10-09T05:06:36.558Z,11.47
2022-10-09T05:09:05.128Z,11.13
2022-10-09T05:11:33.374Z,11.60
2022-10-09T05:14:01.807Z,11.75
2022-10-09T05:16:37.674Z,11.96
2022-10-09T05:19:14.558Z,11.99
2022-10-09T05:21:42.867Z,11.82
2022-10-09T05:24:11.150Z,11.69
2022-10-09T05:26:39.359Z,11.65
2022-10-09T05:29:07.523Z,11.67
2022-10-09T05:31:35.914Z,11.51
2022-10-09T05:34:05.099Z,11.51
2022-10-09T05:36:34.670Z,11.86
2022-10-09T05:39:02.920Z,11.90
2022-10-09T05:41:31.207Z,11.90
2022-10-09T05:44:02.022Z,12.02
2022-10-09T05:46:30.792Z,11.65
2022-10-09T05:49:00.260Z,12.19
2022-10-09T05:51:29.738Z,12.16
2022-10-09T05:54:01.929Z,12.17
2022-10-09T05:56:31.668Z,12.40
2022-10-09T05:59:01.806Z,12.23
2022-10-09T06:01:31.780Z,12.69
2022-10-09T06:04:01.219Z,12.93
2022-10-09T06:06:31.339Z,12.59
2022-10-09T06:09:01.055Z,12.43
2022-10-09T06:11:31.725Z,12.93
2022-10-09T06:13:59.916Z,12.61
2022-10-09T06:16:30.051Z,13.00
2022-10-09T06:18:58.918Z,12.51
2022-10-09T06:21:27.724Z,12.73
2022-10-09T06:23:57.218Z,13.00
2022-10-09T06:26:29.191Z,12.59
2022-10-09T06:28:58.031Z,12.74
2022-10-09T06:31:27.892Z,12.67
2022-10-09T06:33:56.559Z,12.71
2022-10-09T06:36:26.257Z,12.43
2022-10-09T06:38:54.817Z,12.87
2022-10-09T06:41:24.886Z,12.67
2022-10-09T06:43:55.650Z,12.63
2022-10-09T06:46:25.387Z,13.06
2022-10-09T06:48:53.588Z,12.54
2022-10-09T06:51:23.265Z,13.23
2022-10-09T06:53:53.140Z,13.32
2022-10-09T06:56:22.956Z,13.32
2022-10-09T06:58:51.437Z,13.51
2022-10-09T07:01:24.010Z,13.74
2022-10-09T07:03:55.145Z,13.31
2022-10-09T07:06:25.214Z,13.20
2022-10-09T07:08:55.706Z,13.71
2022-10-09T07:11:25.620Z,13.64
2022-10-09T07:13:55.811Z,13.24
2022-10-09T07:16:28.148Z,13.97
2022-10-09T07:18:56.833Z,13.73
2022-10-09T07:21:25.185Z,13.42
2022-10-09T07:23:54.198Z,13.67
2022-10-09T07:26:24.222Z,14.10
2022-10-09T07:28:52.897Z,14.28
2022-10-09T07:31:21.472Z,13.94
2022-10-09T07:33:51.813Z,14.37
2022-10-09T07:36:20.282Z,14.83
2022-10-09T07:38:52.573Z,14.61
2022-10-09T07:41:21.575Z,14.10
2022-10-09T07:43:49.866Z,15.34
2022-10-09T07:46:21.789Z,15.12
2022-10-09T07:48:52.288Z,15.28
2022-10-09T07:51:21.984Z,15.30
2022-10-09T07:53:50.482Z,14.98
2022-10-09T07:56:21.046Z,15.33
2022-10-09T07:58:50.039Z,15.70
2022-10-09T08:01:20.322Z,15.94
2022-10-09T08:03:50.875Z,16.49
2022-10-09T08:06:19.915Z,16.77
2022-10-09T08:08:50.833Z,16.46
2022-10-09T08:11:19.765Z,16.11
2022-10-09T08:13:50.143Z,16.62
2022-10-09T08:16:19.745Z,16.92
2022-10-09T08:18:48.050Z,16.23
2022-10-09T08:21:19.407Z,16.98
2022-10-09T08:23:47.982Z,16.17
2022-10-09T08:26:18.410Z,16.70
2022-10-09T08:28:51.309Z,16.16
2022-10-09T08:31:19.891Z,16.40
2022-10-09T08:33:48.334Z,16.15
2022-10-09T08:36:17.902Z,16.59
2022-10-09T08:38:47.994Z,16.16
2022-10-09T08:41:20.410Z,16.68
2022-10-09T08:43:51.303Z,16.38
2022-10-09T08:46:23.299Z,16.04
2022-10-09T08:48:51.770Z,16.50
2022-10-09T08:51:24.410Z,16.06
2022-10-09T08:53:57.232Z,16.64
2022-10-09T08:56:26.541Z,16.75
2022-10-09T08:58:54.845Z,16.73
2022-10-09T09:01:30.336Z,17.63
2022-10-09T09:04:24.953Z,17.50
2022-10-09T09:07:00.952Z,17.39
2022-10-09T09:09:38.286Z,18.19
2022-10-09T09:12:13.689Z,17.43
2022-10-09T09:14:51.647Z,17.65
2022-10-09T09:17:24.616Z,17.00
2022-10-09T09:20:01.239Z,17.88
2022-10-09T09:22:31.186Z,18.01
2022-10-09T09:25:00.510Z,17.76
2022-10-09T09:27:30.296Z,17.64
2022-10-09T09:30:02.727Z,17.70
2022-10-09T09:32:32.316Z,18.05
2022-10-09T09:35:06.622Z,18.06
2022-10-09T09:37:37.681Z,18.13
2022-10-09T09:42:57.076Z,17.73
2022-10-09T09:45:27.057Z,17.75
2022-10-09T09:47:57.623Z,18.81
2022-10-09T09:50:47.099Z,17.95
2022-10-09T09:53:26.792Z,18.14
2022-10-09T09:55:55.461Z,19.16
2022-10-09T09:58:24.228Z,18.10
2022-10-09T10:00:56.193Z,18.58
2022-10-09T10:03:25.396Z,18.97
2022-10-09T10:05:53.989Z,18.44
2022-10-09T10:08:25.914Z,18.30
2022-10-09T10:10:55.420Z,18.65
2022-10-09T10:13:25.615Z,18.39
2022-10-09T10:15:55.574Z,19.00
2022-10-09T10:18:26.065Z,19.13
2022-10-09T10:20:56.606Z,19.65
2022-10-09T10:23:36.754Z,19.74
2022-10-09T10:26:09.450Z,19.83
2022-10-09T10:28:46.397Z,19.50
2022-10-09T10:31:20.721Z,20.28
2022-10-09T10:33:53.269Z,19.68
2022-10-09T10:36:21.527Z,20.11
2022-10-09T10:38:57.460Z,19.30
2022-10-09T10:41:28.654Z,20.56
2022-10-09T10:44:00.030Z,19.96
2022-10-09T10:46:32.049Z,20.61
2022-10-09T10:49:01.047Z,20.21
2022-10-09T10:51:46.310Z,20.51
2022-10-09T10:54:38.589Z,20.20
2022-10-09T10:57:14.749Z,19.88
2022-10-09T10:59:48.941Z,19.73
2022-10-09T11:02:47.340Z,20.41
2022-10-09T11:05:36.631Z,20.49
2022-10-09T11:08:19.659Z,20.65
2022-10-09T11:10:56.640Z,21.02
2022-10-09T11:13:28.021Z,20.81
2022-10-09T11:16:04.947Z,19.97
2022-10-09T11:18:47.016Z,20.59
2022-10-09T11:21:28.251Z,20.77
2022-10-09T11:24:16.975Z,20.36
2022-10-09T11:26:49.872Z,20.13
2022-10-09T11:29:21.832Z,20.91
2022-10-09T11:31:53.276Z,20.97
2022-10-09T11:34:28.107Z,20.06
2022-10-09T11:36:56.700Z,21.10
2022-10-09T11:39:27.241Z,20.67
2022-10-09T11:41:57.103Z,20.05
2022-10-09T11:44:36.804Z,20.60
2022-10-09T11:47:10.637Z,20.60
2022-10-09T11:49:50.358Z,20.76
2022-10-09T11:52:22.752Z,20.26
2022-10-09T11:54:51.017Z,20.40
2022-10-09T11:57:29.428Z,20.19
2022-10-09T12:00:06.824Z,20.38
2022-10-09T12:02:35.721Z,19.98
2022-10-09T12:05:17.505Z,19.82
2022-10-09T12:07:46.033Z,20.43
2022-10-09T12:10:24.755Z,20.53
2022-10-09T12:13:00.345Z,20.70
2022-10-09T12:15:47.031Z,20.23
2022-10-09T12:18:17.793Z,20.19
2022-10-09T12:20:47.077Z,20.99
2022-10-09T12:23:26.735Z,21.32
2022-10-09T12:25:56.208Z,20.67
2022-10-09T12:28:30.145Z,21.34
2022-10-09T12:31:01.060Z,20.27
2022-10-09T12:33:34.972Z,20.80
2022-10-09T12:36:06.997Z,21.19
2022-10-09T12:38:35.358Z,20.60
2022-10-09T12:41:07.209Z,20.73
2022-10-09T12:43:37.400Z,21.61
2022-10-09T12:46:05.781Z,20.37
2022-10-09T12:48:38.601Z,20.71
2022-10-09T12:51:16.194Z,21.24
2022-10-09T12:53:48.884Z,20.49
2022-10-09T12:56:22.300Z,21.52
2022-10-09T12:58:52.298Z,21.37
2022-10-09T13:01:20.921Z,21.13
2022-10-09T13:03:57.643Z,20.57
2022-10-09T13:06:27.611Z,20.27
2022-10-09T13:08:58.637Z,20.99
2022-10-09T13:11:32.762Z,20.45
2022-10-09T13:14:02.946Z,20.20
2022-10-09T13:16:40.859Z,21.02
2022-10-09T13:19:22.210Z,20.76
2022-10-09T13:22:01.723Z,21.87
2022-10-09T13:24:30.473Z,21.79
2022-10-09T13:26:58.646Z,20.99
2022-10-09T13:29:28.446Z,20.91
2022-10-09T13:31:56.672Z,20.55
2022-10-09T13:34:25.002Z,20.42
2022-10-09T13:36:53.274Z,20.80
2022-10-09T13:39:21.482Z,20.76
2022-10-09T13:41:50.042Z,20.79
2022-10-09T13:44:18.271Z,20.89
2022-10-09T13:46:48.191Z,20.81
2022-10-09T13:49:16.445Z,20.63
2022-10-09T13:51:44.672Z,20.17
2022-10-09T13:54:12.969Z,20.12
2022-10-09T13:56:41.228Z,21.35
2022-10-09T13:59:09.452Z,20.82
2022-10-09T14:01:37.730Z,20.81
2022-10-09T14:04:07.333Z,21.13
2022-10-09T14:06:36.923Z,20.93
2022-10-09T14:09:05.545Z,20.45
2022-10-09T14:11:34.258Z,20.94
2022-10-09T14:14:03.097Z,21.21
2022-10-09T14:16:32.808Z,20.48
2022-10-09T14:19:02.920Z,20.43
2022-10-09T14:21:32.776Z,19.78
2022-10-09T14:24:02.927Z,20.34
2022-10-09T14:26:31.421Z,20.20
2022-10-09T14:29:01.761Z,20.11
2022-10-09T14:31:30.887Z,20.22
2022-10-09T14:34:00.520Z,19.97
2022-10-09T14:36:29.646Z,19.84
2022-10-09T14:39:00.229Z,19.84
2022-10-09T14:41:28.443Z,20.26
2022-10-09T14:43:59.292Z,20.07
2022-10-09T14:46:28.835Z,19.71
2022-10-09T14:48:57.858Z,20.27
2022-10-09T14:51:28.059Z,19.79
2022-10-09T14:53:59.032Z,20.31
2022-10-09T14:56:28.139Z,20.04
2022-10-09T14:58:57.860Z,20.40
2022-10-09T15:01:28.883Z,20.04
2022-10-09T15:03:57.171Z,20.76
2022-10-09T15:06:25.433Z,20.56
2022-10-09T15:08:57.146Z,20.33
2022-10-09T15:11:29.390Z,19.70
2022-10-09T15:13:57.888Z,20.29
2022-10-09T15:16:26.247Z,19.79
2022-10-09T15:18:55.703Z,19.69
2022-10-09T15:21:25.999Z,20.36
2022-10-09T15:23:55.023Z,20.71
2022-10-09T15:26:23.741Z,20.03
2022-10-09T15:28:53.362Z,19.73
2022-10-09T15:31:24.360Z,19.90
2022-10-09T15:33:53.237Z,20.32
2022-10-09T15:36:21.728Z,19.96
2022-10-09T15:38:50.544Z,19.62
2022-10-09T15:41:23.191Z,19.79
2022-10-09T15:43:53.956Z,19.57
2022-10-09T15:46:22.377Z,20.57
2022-10-09T15:48:50.955Z,20.44
2022-10-09T15:51:19.788Z,20.31
2022-10-09T15:53:49.172Z,19.82
2022-10-09T15:56:19.774Z,20.09
2022-10-09T15:58:47.795Z,20.43
2022-10-09T16:01:18.090Z,20.59
2022-10-09T16:03:46.699Z,20.55
2022-10-09T16:06:17.810Z,21.21
2022-10-09T16:08:46.504Z,20.08
2022-10-09T16:11:19.122Z,21.09
2022-10-09T16:13:50.141Z,20.45
2022-10-09T16:16:21.204Z,20.83
2022-10-09T16:18:49.875Z,20.81
2022-10-09T16:21:19.954Z,20.37
2022-10-09T16:23:48.404Z,20.63
2022-10-09T16:26:19.050Z,20.25
2022-10-09T16:28:47.298Z,21.02
2022-10-09T16:31:24.929Z,21.06
2022-10-09T16:33:53.368Z,20.00
2022-10-09T16:36:21.635Z,19.89
2022-10-09T16:38:50.054Z,20.45
2022-10-09T16:41:20.176Z,20.65
2022-10-09T16:43:50.436Z,20.23
2022-10-09T16:46:21.349Z,20.87
2022-10-09T16:48:52.204Z,20.07
2022-10-09T16:51:21.642Z,20.22
2022-10-09T16:53:50.851Z,20.13
2022-10-09T16:56:21.054Z,20.75
2022-10-09T16:58:49.347Z,21.11
2022-10-09T17:01:17.651Z,20.06
2022-10-09T17:03:46.241Z,20.79
2022-10-09T17:06:19.579Z,20.90
2022-10-09T17:08:48.349Z,19.85
2022-10-09T17:11:18.067Z,20.16
2022-10-09T17:13:47.097Z,19.96
2022-10-09T17:16:18.410Z,20.15
2022-10-09T17:18:48.149Z,19.98
2022-10-09T17:21:19.145Z,20.36
2022-10-09T17:23:47.856Z,20.29
2022-10-09T17:26:17.757Z,20.22
2022-10-09T17:28:47.410Z,20.25
2022-10-09T17:31:17.205Z,20.69
2022-10-09T17:33:48.444Z,20.90
2022-10-09T17:36:19.579Z,20.65
2022-10-09T17:38:48.382Z,20.83
2022-10-09T17:41:21.354Z,20.41
2022-10-09T17:43:49.658Z,20.55
2022-10-09T17:46:18.424Z,20.00
2022-10-09T17:48:52.648Z,20.13
2022-10-09T17:51:23.922Z,20.17
2022-10-09T17:53:52.771Z,19.94
2022-10-09T17:56:21.167Z,20.04
2022-10-09T17:58:50.125Z,20.22
2022-10-09T18:01:18.705Z,20.43
2022-10-09T18:03:47.015Z,19.79
2022-10-09T18:06:16.809Z,19.57
2022-10-09T18:08:47.322Z,20.36
2022-10-09T18:11:17.163Z,19.98
2022-10-09T18:13:45.883Z,20.34
2022-10-09T18:16:15.744Z,20.14
2022-10-09T18:18:44.377Z,20.00
2022-10-09T18:21:16.906Z,19.94
2022-10-09T18:23:47.444Z,19.75
2022-10-09T18:26:17.230Z,19.49
2022-10-09T18:28:48.295Z,19.51
2022-10-09T18:31:19.567Z,19.17
2022-10-09T18:33:48.231Z,19.28
2022-10-09T18:36:19.680Z,19.31
2022-10-09T18:38:51.077Z,19.43
2022-10-09T18:41:20.366Z,19.18
2022-10-09T18:43:49.193Z,18.46
2022-10-09T18:46:18.260Z,18.73
2022-10-09T18:48:46.888Z,19.25
2022-10-09T18:51:17.688Z,18.89
2022-10-09T18:53:48.690Z,18.94
2022-10-09T18:56:20.403Z,18.97
2022-10-09T18:58:50.517Z,19.12
2022-10-09T19:01:18.803Z,19.18
2022-10-09T19:03:49.938Z,18.92
2022-10-09T19:06:18.890Z,18.72
2022-10-09T19:08:47.545Z,18.83
2022-10-09T19:11:15.885Z,18.73
2022-10-09T19:13:45.839Z,18.29
2022-10-09T19:16:14.073Z,18.16
2022-10-09T19:18:42.363Z,18.33
2022-10-09T19:21:13.821Z,17.90
2022-10-09T19:23:42.148Z,17.82
2022-10-09T19:26:10.671Z,17.96
2022-10-09T19:28:39.351Z,17.81
2022-10-09T19:31:10.544Z,17.75
2022-10-09T19:33:39.771Z,17.68
2022-10-09T19:36:08.772Z,17.96
2022-10-09T19:38:37.024Z,17.69
2022-10-09T19:41:06.555Z,17.88
2022-10-09T19:43:35.221Z,18.33
2022-10-09T19:46:04.810Z,18.14
2022-10-09T19:48:34.672Z,17.68
2022-10-09T19:51:07.282Z,18.70
2022-10-09T19:53:36.456Z,18.69
2022-10-09T19:56:10.679Z,18.84
2022-10-09T19:58:40.853Z,18.84
2022-10-09T20:01:10.682Z,18.91
2022-10-09T20:03:40.328Z,18.01
2022-10-09T20:06:09.558Z,17.99
2022-10-09T20:08:38.115Z,17.64
2022-10-09T20:11:07.511Z,17.95
2022-10-09T20:13:37.213Z,17.75
2022-10-09T20:16:07.880Z,17.48
2022-10-09T20:18:36.095Z,17.76
2022-10-09T20:21:05.977Z,17.42
2022-10-09T20:23:34.267Z,17.85
2022-10-09T20:26:03.231Z,18.09
2022-10-09T20:28:32.671Z,17.76
2022-10-09T20:31:06.264Z,17.93
2022-10-09T20:33:34.698Z,17.48
2022-10-09T20:36:03.878Z,17.24
2022-10-09T20:38:33.832Z,17.03
2022-10-09T20:41:06.657Z,17.13
2022-10-09T20:43:35.108Z,16.96
2022-10-09T20:46:07.050Z,17.26
2022-10-09T20:48:35.503Z,17.55
2022-10-09T20:51:04.268Z,17.44
2022-10-09T20:53:34.186Z,17.79
2022-10-09T20:56:03.229Z,17.71
2022-10-09T20:58:31.771Z,17.45
2022-10-09T21:01:00.162Z,17.04
2022-10-09T21:03:28.427Z,17.03
2022-10-09T21:05:56.640Z,16.88
2022-10-09T21:08:24.932Z,17.27
2022-10-09T21:10:54.561Z,17.49
2022-10-09T21:13:22.737Z,17.43
2022-10-09T21:15:51.262Z,17.43
2022-10-09T21:18:20.040Z,17.89
2022-10-09T21:20:48.760Z,16.71
2022-10-09T21:23:18.412Z,16.27
2022-10-09T21:25:50.816Z,16.99
2022-10-09T21:28:21.746Z,16.83
2022-10-09T21:30:50.670Z,17.20
2022-10-09T21:33:19.418Z,16.94
2022-10-09T21:35:49.278Z,17.78
2022-10-09T21:38:19.159Z,17.25
2022-10-09T21:40:49.217Z,17.46
2022-10-09T21:43:17.874Z,16.90
2022-10-09T21:45:50.333Z,18.17
2022-10-09T21:48:18.815Z,18.19
2022-10-09T21:50:47.046Z,17.99
2022-10-09T21:53:15.302Z,17.23
2022-10-09T21:55:43.563Z,17.54
2022-10-09T21:58:11.882Z,18.07
2022-10-09T22:00:40.262Z,17.81
2022-10-09T22:03:09.851Z,18.11
2022-10-09T22:05:40.227Z,17.91
2022-10-09T22:08:08.461Z,18.16
2022-10-09T22:10:36.718Z,18.09
2022-10-09T22:13:05.151Z,17.60
2022-10-09T22:15:33.438Z,17.72
2022-10-09T22:18:01.732Z,17.92
2022-10-09T22:20:31.359Z,18.07
2022-10-09T22:22:59.582Z,17.99
2022-10-09T22:25:27.859Z,18.03
2022-10-09T22:27:56.145Z,17.97
2022-10-09T22:30:24.368Z,18.01
2022-10-09T22:32:53.973Z,17.78
2022-10-09T22:35:22.613Z,17.56
2022-10-09T22:37:52.398Z,17.14
2022-10-09T22:40:20.948Z,15.76
2022-10-09T22:42:49.568Z,15.85
2022-10-09T22:45:17.948Z,15.93
2022-10-09T22:47:47.687Z,16.04
2022-10-09T22:50:16.023Z,16.31
2022-10-09T22:52:44.235Z,15.85
2022-10-09T22:55:13.836Z,16.18
2022-10-09T22:57:42.134Z,16.24
2022-10-09T23:00:11.825Z,16.70
2022-10-09T23:02:40.154Z,16.81
2022-10-09T23:05:08.914Z,16.58
2022-10-09T23:07:37.157Z,16.91
2022-10-09T23:10:06.210Z,17.06
2022-10-09T23:12:35.902Z,16.62
2022-10-09T23:15:04.495Z,16.79
2022-10-09T23:17:32.757Z,17.00
2022-10-09T23:20:01.009Z,16.86
2022-10-09T23:22:29.226Z,16.37
2022-10-09T23:24:57.463Z,16.66
2022-10-09T23:27:25.712Z,15.50
2022-10-09T23:29:55.308Z,16.46
2022-10-09T23:32:23.559Z,16.53
2022-10-09T23:34:51.776Z,16.55
2022-10-09T23:37:20.021Z,16.61
2022-10-09T23:39:48.374Z,16.70
2022-10-09T23:42:16.590Z,16.66
2022-10-09T23:44:44.830Z,16.87
2022-10-09T23:47:14.479Z,16.94
2022-10-09T23:49:42.890Z,16.91
2022-10-09T23:52:11.207Z,16.85
2022-10-09T23:54:39.443Z,15.86
2022-10-09T23:57:07.694Z,16.42
2022-10-09T23:59:36.109Z,16.13
